sensor_id;sensor_type;location;lat;lon;timestamp;pressure;altitude;pressure_sealevel;temperature;humidity
47785;BME280;35233;55.686;37.848;2023-02-12T00:02:06;98278.84;;;13.02;44.07
47785;BME280;35233;55.686;37.848;2023-02-12T00:04:32;98287.66;;;13.02;44.33
47785;BME280;35233;55.686;37.848;2023-02-12T00:06:57;98286.50;;;12.92;44.33
47785;BME280;35233;55.686;37.848;2023-02-12T00:09:23;98290.88;;;12.93;44.28
47785;BME280;35233;55.686;37.848;2023-02-12T00:11:48;98281.03;;;12.95;44.11
47785;BME280;35233;55.686;37.848;2023-02-12T00:14:14;98287.81;;;12.85;44.32
47785;BME280;35233;55.686;37.848;2023-02-12T00:16:39;98298.22;;;12.88;44.35
47785;BME280;35233;55.686;37.848;2023-02-12T00:19:05;98306.53;;;12.82;44.50
47785;BME280;35233;55.686;37.848;2023-02-12T00:21:30;98298.53;;;12.83;44.54
47785;BME280;35233;55.686;37.848;2023-02-12T00:23:56;98317.63;;;12.74;44.60
47785;BME280;35233;55.686;37.848;2023-02-12T00:26:23;98309.75;;;12.73;44.33
47785;BME280;35233;55.686;37.848;2023-02-12T00:28:49;98316.59;;;12.61;44.40
47785;BME280;35233;55.686;37.848;2023-02-12T00:31:20;98324.31;;;12.65;44.45
47785;BME280;35233;55.686;37.848;2023-02-12T00:33:46;98319.31;;;12.75;44.11
47785;BME280;35233;55.686;37.848;2023-02-12T00:36:17;98323.06;;;12.71;43.95
47785;BME280;35233;55.686;37.848;2023-02-12T00:38:43;98334.91;;;12.80;43.83
47785;BME280;35233;55.686;37.848;2023-02-12T00:41:09;98345.63;;;12.78;43.93
47785;BME280;35233;55.686;37.848;2023-02-12T00:43:35;98358.81;;;12.64;44.11
47785;BME280;35233;55.686;37.848;2023-02-12T00:46:00;98360.88;;;12.59;44.41
47785;BME280;35233;55.686;37.848;2023-02-12T00:48:26;98352.69;;;12.48;44.16
47785;BME280;35233;55.686;37.848;2023-02-12T00:50:52;98370.13;;;12.52;43.76
47785;BME280;35233;55.686;37.848;2023-02-12T00:53:17;98379.59;;;12.56;43.81
47785;BME280;35233;55.686;37.848;2023-02-12T00:55:44;98381.81;;;12.63;43.53
47785;BME280;35233;55.686;37.848;2023-02-12T00:58:10;98389.16;;;12.58;43.65
47785;BME280;35233;55.686;37.848;2023-02-12T01:00:35;98393.19;;;12.50;43.70
47785;BME280;35233;55.686;37.848;2023-02-12T01:03:01;98401.13;;;12.50;43.80
47785;BME280;35233;55.686;37.848;2023-02-12T01:05:28;98412.34;;;12.55;43.42
47785;BME280;35233;55.686;37.848;2023-02-12T01:07:55;98400.19;;;12.51;43.44
47785;BME280;35233;55.686;37.848;2023-02-12T01:10:21;98412.13;;;12.42;43.58
47785;BME280;35233;55.686;37.848;2023-02-12T01:12:47;98432.06;;;12.49;43.40
47785;BME280;35233;55.686;37.848;2023-02-12T01:15:13;98431.56;;;12.42;43.54
47785;BME280;35233;55.686;37.848;2023-02-12T01:17:39;98432.75;;;12.37;43.55
47785;BME280;35233;55.686;37.848;2023-02-12T01:20:06;98440.69;;;12.37;43.60
47785;BME280;35233;55.686;37.848;2023-02-12T01:22:36;98447.53;;;12.41;43.45
47785;BME280;35233;55.686;37.848;2023-02-12T01:25:04;98464.47;;;12.54;43.32
47785;BME280;35233;55.686;37.848;2023-02-12T01:27:29;98463.25;;;12.44;43.22
47785;BME280;35233;55.686;37.848;2023-02-12T01:29:55;98473.16;;;12.40;43.56
47785;BME280;35233;55.686;37.848;2023-02-12T01:32:21;98469.22;;;12.48;43.39
47785;BME280;35233;55.686;37.848;2023-02-12T01:34:47;98491.47;;;12.45;43.32
47785;BME280;35233;55.686;37.848;2023-02-12T01:37:12;98483.41;;;12.46;42.83
47785;BME280;35233;55.686;37.848;2023-02-12T01:39:38;98485.44;;;12.41;43.08
47785;BME280;35233;55.686;37.848;2023-02-12T01:42:04;98511.63;;;12.63;42.72
47785;BME280;35233;55.686;37.848;2023-02-12T01:44:32;98502.63;;;12.50;42.90
47785;BME280;35233;55.686;37.848;2023-02-12T01:47:02;98524.94;;;12.46;43.03
47785;BME280;35233;55.686;37.848;2023-02-12T01:49:32;98531.19;;;12.45;42.82
47785;BME280;35233;55.686;37.848;2023-02-12T01:54:38;98548.09;;;12.42;42.88
47785;BME280;35233;55.686;37.848;2023-02-12T01:57:06;98550.03;;;12.39;42.54
47785;BME280;35233;55.686;37.848;2023-02-12T01:59:33;98550.53;;;12.30;42.81
47785;BME280;35233;55.686;37.848;2023-02-12T02:02:00;98566.72;;;12.41;42.73
47785;BME280;35233;55.686;37.848;2023-02-12T02:04:28;98574.13;;;12.34;42.57
47785;BME280;35233;55.686;37.848;2023-02-12T02:07:00;98573.97;;;12.37;42.72
47785;BME280;35233;55.686;37.848;2023-02-12T02:09:30;98573.97;;;12.37;42.16
47785;BME280;35233;55.686;37.848;2023-02-12T02:11:57;98584.09;;;12.29;42.31
47785;BME280;35233;55.686;37.848;2023-02-12T02:14:42;98594.91;;;12.24;42.54
47785;BME280;35233;55.686;37.848;2023-02-12T02:20:14;98633.72;;;12.26;42.69
47785;BME280;35233;55.686;37.848;2023-02-12T02:22:52;98631.22;;;12.40;42.07
47785;BME280;35233;55.686;37.848;2023-02-12T02:28:09;98652.78;;;12.32;41.92
47785;BME280;35233;55.686;37.848;2023-02-12T02:35:52;98670.94;;;12.22;41.92
47785;BME280;35233;55.686;37.848;2023-02-12T02:39:05;98670.25;;;12.19;41.98
47785;BME280;35233;55.686;37.848;2023-02-12T02:43:48;98688.53;;;12.23;41.85
47785;BME280;35233;55.686;37.848;2023-02-12T02:48:55;98696.59;;;12.22;42.04
47785;BME280;35233;55.686;37.848;2023-02-12T02:51:29;98708.19;;;12.19;42.12
47785;BME280;35233;55.686;37.848;2023-02-12T02:54:20;98702.19;;;12.16;41.96
47785;BME280;35233;55.686;37.848;2023-02-12T02:56:48;98713.16;;;12.26;41.83
47785;BME280;35233;55.686;37.848;2023-02-12T02:59:24;98703.56;;;12.23;41.54
47785;BME280;35233;55.686;37.848;2023-02-12T03:02:00;98736.91;;;12.27;41.65
47785;BME280;35233;55.686;37.848;2023-02-12T03:04:34;98724.38;;;12.13;41.20
47785;BME280;35233;55.686;37.848;2023-02-12T03:10:17;98755.81;;;12.02;41.57
47785;BME280;35233;55.686;37.848;2023-02-12T03:15:25;98750.13;;;12.10;40.96
47785;BME280;35233;55.686;37.848;2023-02-12T03:17:53;98770.09;;;11.98;41.79
47785;BME280;35233;55.686;37.848;2023-02-12T03:20:24;98781.19;;;12.06;41.08
47785;BME280;35233;55.686;37.848;2023-02-12T03:22:57;98764.59;;;12.03;40.86
47785;BME280;35233;55.686;37.848;2023-02-12T03:28:18;98793.50;;;12.07;40.54
47785;BME280;35233;55.686;37.848;2023-02-12T03:30:46;98815.84;;;12.02;41.13
47785;BME280;35233;55.686;37.848;2023-02-12T03:33:24;98803.34;;;12.04;40.53
47785;BME280;35233;55.686;37.848;2023-02-12T03:36:01;98817.13;;;11.93;40.60
47785;BME280;35233;55.686;37.848;2023-02-12T03:41:26;98838.16;;;11.96;40.39
47785;BME280;35233;55.686;37.848;2023-02-12T03:46:22;98838.22;;;11.94;40.49
47785;BME280;35233;55.686;37.848;2023-02-12T03:49:00;98845.31;;;11.94;40.71
47785;BME280;35233;55.686;37.848;2023-02-12T03:53:56;98824.69;;;11.82;40.60
47785;BME280;35233;55.686;37.848;2023-02-12T03:56:31;98855.69;;;11.98;40.11
47785;BME280;35233;55.686;37.848;2023-02-12T03:58:58;98870.06;;;11.93;40.49
47785;BME280;35233;55.686;37.848;2023-02-12T04:01:24;98873.22;;;11.81;40.29
47785;BME280;35233;55.686;37.848;2023-02-12T04:03:50;98867.16;;;11.78;40.70
47785;BME280;35233;55.686;37.848;2023-02-12T04:06:21;98877.59;;;11.82;40.50
47785;BME280;35233;55.686;37.848;2023-02-12T04:08:48;98883.75;;;11.82;40.23
47785;BME280;35233;55.686;37.848;2023-02-12T04:16:42;98891.13;;;11.75;40.50
47785;BME280;35233;55.686;37.848;2023-02-12T04:19:12;98905.59;;;11.87;39.87
47785;BME280;35233;55.686;37.848;2023-02-12T04:22:44;98906.75;;;11.80;40.03
47785;BME280;35233;55.686;37.848;2023-02-12T04:32:26;98933.25;;;11.60;40.16
47785;BME280;35233;55.686;37.848;2023-02-12T04:35:15;98959.44;;;11.66;39.97
47785;BME280;35233;55.686;37.848;2023-02-12T04:40:23;98950.66;;;11.65;39.11
47785;BME280;35233;55.686;37.848;2023-02-12T04:42:50;98968.84;;;11.73;39.62
47785;BME280;35233;55.686;37.848;2023-02-12T04:45:24;98979.47;;;11.71;39.52
47785;BME280;35233;55.686;37.848;2023-02-12T04:47:51;98967.59;;;11.61;39.49
47785;BME280;35233;55.686;37.848;2023-02-12T04:50:17;98981.00;;;11.56;39.48
47785;BME280;35233;55.686;37.848;2023-02-12T04:52:43;98981.28;;;11.50;40.05
47785;BME280;35233;55.686;37.848;2023-02-12T04:55:08;98989.78;;;11.57;40.04
47785;BME280;35233;55.686;37.848;2023-02-12T04:57:34;98996.59;;;11.63;39.76
47785;BME280;35233;55.686;37.848;2023-02-12T04:59:59;99005.25;;;11.46;39.73
47785;BME280;35233;55.686;37.848;2023-02-12T05:02:25;99003.53;;;11.45;39.39
47785;BME280;35233;55.686;37.848;2023-02-12T05:04:50;99016.03;;;11.41;39.96
47785;BME280;35233;55.686;37.848;2023-02-12T05:07:16;99027.59;;;11.61;39.26
47785;BME280;35233;55.686;37.848;2023-02-12T05:09:41;99023.47;;;11.53;39.11
47785;BME280;35233;55.686;37.848;2023-02-12T05:12:07;99044.75;;;11.50;39.12
47785;BME280;35233;55.686;37.848;2023-02-12T05:14:33;99046.47;;;11.51;39.50
47785;BME280;35233;55.686;37.848;2023-02-12T05:16:58;99043.22;;;11.45;39.78
47785;BME280;35233;55.686;37.848;2023-02-12T05:19:24;99037.09;;;11.22;39.52
47785;BME280;35233;55.686;37.848;2023-02-12T05:21:50;99058.38;;;11.41;39.86
47785;BME280;35233;55.686;37.848;2023-02-12T05:24:15;99076.66;;;11.46;39.86
47785;BME280;35233;55.686;37.848;2023-02-12T05:26:41;99070.47;;;11.47;40.15
47785;BME280;35233;55.686;37.848;2023-02-12T05:29:06;99086.09;;;11.53;39.32
47785;BME280;35233;55.686;37.848;2023-02-12T05:31:32;99087.25;;;11.46;39.39
47785;BME280;35233;55.686;37.848;2023-02-12T05:33:58;99093.97;;;11.32;39.52
47785;BME280;35233;55.686;37.848;2023-02-12T05:36:24;99092.53;;;11.46;39.38
47785;BME280;35233;55.686;37.848;2023-02-12T05:38:51;99115.69;;;11.41;39.84
47785;BME280;35233;55.686;37.848;2023-02-12T05:41:19;99113.56;;;11.49;39.61
47785;BME280;35233;55.686;37.848;2023-02-12T05:43:45;99114.34;;;11.52;39.61
47785;BME280;35233;55.686;37.848;2023-02-12T05:46:11;99122.84;;;11.37;40.17
47785;BME280;35233;55.686;37.848;2023-02-12T05:48:38;99115.34;;;11.48;39.84
47785;BME280;35233;55.686;37.848;2023-02-12T05:51:06;99124.28;;;11.46;39.70
47785;BME280;35233;55.686;37.848;2023-02-12T05:53:33;99126.69;;;11.52;38.96
47785;BME280;35233;55.686;37.848;2023-02-12T05:56:13;99122.19;;;11.54;38.98
47785;BME280;35233;55.686;37.848;2023-02-12T05:58:40;99158.38;;;11.53;39.59
47785;BME280;35233;55.686;37.848;2023-02-12T06:01:14;99128.59;;;11.48;39.35
47785;BME280;35233;55.686;37.848;2023-02-12T06:03:40;99131.06;;;11.53;39.25
47785;BME280;35233;55.686;37.848;2023-02-12T06:06:06;99133.09;;;11.46;39.58
47785;BME280;35233;55.686;37.848;2023-02-12T06:08:32;99172.53;;;11.52;39.62
47785;BME280;35233;55.686;37.848;2023-02-12T06:11:02;99157.38;;;11.56;38.98
47785;BME280;35233;55.686;37.848;2023-02-12T06:13:29;99185.69;;;11.54;39.39
47785;BME280;35233;55.686;37.848;2023-02-12T06:15:55;99181.31;;;11.53;39.33
47785;BME280;35233;55.686;37.848;2023-02-12T06:18:20;99197.75;;;11.61;38.95
47785;BME280;35233;55.686;37.848;2023-02-12T06:20:46;99210.66;;;11.69;38.54
47785;BME280;35233;55.686;37.848;2023-02-12T06:23:11;99199.84;;;11.53;39.00
47785;BME280;35233;55.686;37.848;2023-02-12T06:25:37;99215.59;;;11.56;38.91
47785;BME280;35233;55.686;37.848;2023-02-12T06:28:02;99223.41;;;11.59;38.54
47785;BME280;35233;55.686;37.848;2023-02-12T06:30:28;99233.16;;;11.57;39.04
47785;BME280;35233;55.686;37.848;2023-02-12T06:32:55;99239.97;;;11.64;38.81
47785;BME280;35233;55.686;37.848;2023-02-12T06:35:20;99253.34;;;11.60;39.08
47785;BME280;35233;55.686;37.848;2023-02-12T06:37:46;99247.72;;;11.45;39.26
47785;BME280;35233;55.686;37.848;2023-02-12T06:40:12;99254.66;;;11.49;38.93
47785;BME280;35233;55.686;37.848;2023-02-12T06:42:37;99273.22;;;11.48;39.22
47785;BME280;35233;55.686;37.848;2023-02-12T06:45:03;99274.53;;;11.60;37.97
47785;BME280;35233;55.686;37.848;2023-02-12T06:47:29;99268.97;;;11.44;38.52
47785;BME280;35233;55.686;37.848;2023-02-12T06:49:54;99283.88;;;11.46;37.70
47785;BME280;35233;55.686;37.848;2023-02-12T06:52:19;99284.06;;;11.40;38.08
47785;BME280;35233;55.686;37.848;2023-02-12T06:54:47;99295.41;;;11.44;37.73
47785;BME280;35233;55.686;37.848;2023-02-12T06:57:12;99290.06;;;11.45;38.06
47785;BME280;35233;55.686;37.848;2023-02-12T06:59:38;99281.38;;;11.42;37.95
47785;BME280;35233;55.686;37.848;2023-02-12T07:02:03;99294.88;;;11.34;38.01
47785;BME280;35233;55.686;37.848;2023-02-12T07:04:29;99309.78;;;11.37;37.69
47785;BME280;35233;55.686;37.848;2023-02-12T07:06:54;99310.81;;;11.32;38.10
47785;BME280;35233;55.686;37.848;2023-02-12T07:09:20;99313.22;;;11.39;38.13
47785;BME280;35233;55.686;37.848;2023-02-12T07:11:45;99324.50;;;11.44;38.25
47785;BME280;35233;55.686;37.848;2023-02-12T07:14:15;99328.97;;;11.42;37.79
47785;BME280;35233;55.686;37.848;2023-02-12T07:16:41;99338.09;;;11.35;37.93
47785;BME280;35233;55.686;37.848;2023-02-12T07:19:06;99337.97;;;11.38;38.52
47785;BME280;35233;55.686;37.848;2023-02-12T07:21:32;99330.53;;;11.47;38.09
47785;BME280;35233;55.686;37.848;2023-02-12T07:23:57;99338.94;;;11.35;38.63
47785;BME280;35233;55.686;37.848;2023-02-12T07:26:23;99347.38;;;11.45;38.53
47785;BME280;35233;55.686;37.848;2023-02-12T07:28:50;99349.88;;;11.49;39.10
47785;BME280;35233;55.686;37.848;2023-02-12T07:31:21;99360.94;;;11.61;38.17
47785;BME280;35233;55.686;37.848;2023-02-12T07:33:48;99369.72;;;11.61;38.26
47785;BME280;35233;55.686;37.848;2023-02-12T07:36:16;99370.38;;;11.66;38.20
47785;BME280;35233;55.686;37.848;2023-02-12T07:38:42;99367.69;;;11.68;37.82
47785;BME280;35233;55.686;37.848;2023-02-12T07:41:14;99377.53;;;11.64;37.23
47785;BME280;35233;55.686;37.848;2023-02-12T07:43:41;99385.75;;;11.56;36.82
47785;BME280;35233;55.686;37.848;2023-02-12T07:46:12;99396.06;;;11.64;36.80
47785;BME280;35233;55.686;37.848;2023-02-12T07:48:38;99386.41;;;11.87;36.82
47785;BME280;35233;55.686;37.848;2023-02-12T07:51:06;99408.22;;;12.39;38.11
47785;BME280;35233;55.686;37.848;2023-02-12T07:53:32;99400.44;;;11.65;39.28
47785;BME280;35233;55.686;37.848;2023-02-12T07:56:11;99406.31;;;11.48;39.44
47785;BME280;35233;55.686;37.848;2023-02-12T07:58:38;99407.03;;;11.53;39.54
47785;BME280;35233;55.686;37.848;2023-02-12T08:01:34;99416.78;;;11.51;38.96
47785;BME280;35233;55.686;37.848;2023-02-12T08:04:01;99430.03;;;11.51;38.90
47785;BME280;35233;55.686;37.848;2023-02-12T08:06:29;99420.53;;;11.46;38.89
47785;BME280;35233;55.686;37.848;2023-02-12T08:08:57;99449.44;;;11.52;39.06
47785;BME280;35233;55.686;37.848;2023-02-12T08:11:24;99466.19;;;11.51;39.10
47785;BME280;35233;55.686;37.848;2023-02-12T08:13:53;99456.91;;;11.64;38.09
47785;BME280;35233;55.686;37.848;2023-02-12T08:16:23;99460.03;;;11.50;38.77
47785;BME280;35233;55.686;37.848;2023-02-12T08:18:49;99472.53;;;11.47;38.57
47785;BME280;35233;55.686;37.848;2023-02-12T08:21:18;99461.28;;;11.40;38.37
47785;BME280;35233;55.686;37.848;2023-02-12T08:23:44;99473.63;;;11.40;38.23
47785;BME280;35233;55.686;37.848;2023-02-12T08:26:16;99489.56;;;11.38;38.54
47785;BME280;35233;55.686;37.848;2023-02-12T08:28:53;99471.59;;;11.48;38.53
47785;BME280;35233;55.686;37.848;2023-02-12T08:31:22;99482.81;;;11.54;38.49
47785;BME280;35233;55.686;37.848;2023-02-12T08:33:49;99485.66;;;11.50;38.37
47785;BME280;35233;55.686;37.848;2023-02-12T08:36:17;99488.31;;;11.48;38.49
47785;BME280;35233;55.686;37.848;2023-02-12T08:38:44;99494.53;;;11.47;38.07
47785;BME280;35233;55.686;37.848;2023-02-12T08:41:12;99495.59;;;11.43;38.39
47785;BME280;35233;55.686;37.848;2023-02-12T08:43:39;99482.19;;;11.48;38.08
47785;BME280;35233;55.686;37.848;2023-02-12T08:46:16;99491.03;;;11.72;38.58
47785;BME280;35233;55.686;37.848;2023-02-12T08:48:42;99484.16;;;14.85;37.35
47785;BME280;35233;55.686;37.848;2023-02-12T08:53:40;99495.25;;;15.99;36.00
47785;BME280;35233;55.686;37.848;2023-02-12T08:56:07;99490.97;;;16.30;35.53
47785;BME280;35233;55.686;37.848;2023-02-12T08:58:34;99496.75;;;16.38;35.04
47785;BME280;35233;55.686;37.848;2023-02-12T09:01:00;99501.22;;;16.53;34.18
47785;BME280;35233;55.686;37.848;2023-02-12T09:03:26;99507.13;;;16.92;33.53
47785;BME280;35233;55.686;37.848;2023-02-12T09:05:51;99516.41;;;17.16;33.10
47785;BME280;35233;55.686;37.848;2023-02-12T09:08:17;99495.06;;;17.16;33.06
47785;BME280;35233;55.686;37.848;2023-02-12T09:10:43;99517.94;;;17.20;32.71
47785;BME280;35233;55.686;37.848;2023-02-12T09:13:10;99521.72;;;17.32;32.64
47785;BME280;35233;55.686;37.848;2023-02-12T09:15:43;99511.53;;;17.39;32.86
47785;BME280;35233;55.686;37.848;2023-02-12T09:18:11;99530.16;;;15.95;34.05
47785;BME280;35233;55.686;37.848;2023-02-12T09:20:39;99534.59;;;15.06;34.87
47785;BME280;35233;55.686;37.848;2023-02-12T09:23:06;99540.38;;;14.59;35.18
47785;BME280;35233;55.686;37.848;2023-02-12T09:25:31;99536.25;;;14.33;35.39
47785;BME280;35233;55.686;37.848;2023-02-12T09:28:00;99543.00;;;14.00;35.51
47785;BME280;35233;55.686;37.848;2023-02-12T09:30:26;99561.59;;;13.80;35.51
47785;BME280;35233;55.686;37.848;2023-02-12T09:32:51;99565.09;;;13.60;35.88
47785;BME280;35233;55.686;37.848;2023-02-12T09:35:17;99570.75;;;13.30;36.03
47785;BME280;35233;55.686;37.848;2023-02-12T09:37:43;99568.97;;;13.07;36.39
47785;BME280;35233;55.686;37.848;2023-02-12T09:40:19;99571.59;;;13.09;36.19
47785;BME280;35233;55.686;37.848;2023-02-12T09:45:26;99564.66;;;16.31;39.00
47785;BME280;35233;55.686;37.848;2023-02-12T09:48:03;99569.44;;;16.91;40.55
47785;BME280;35233;55.686;37.848;2023-02-12T09:50:32;99578.91;;;17.28;40.66
47785;BME280;35233;55.686;37.848;2023-02-12T09:53:02;99575.72;;;17.22;38.99
47785;BME280;35233;55.686;37.848;2023-02-12T09:55:31;99575.66;;;17.53;40.15
47785;BME280;35233;55.686;37.848;2023-02-12T09:57:58;99558.28;;;17.46;40.25
47785;BME280;35233;55.686;37.848;2023-02-12T10:00:28;99567.13;;;17.62;38.00
47785;BME280;35233;55.686;37.848;2023-02-12T10:03:00;99582.81;;;17.69;36.48
47785;BME280;35233;55.686;37.848;2023-02-12T10:05:29;99580.88;;;17.71;34.92
47785;BME280;35233;55.686;37.848;2023-02-12T10:08:19;99596.41;;;17.80;34.05
47785;BME280;35233;55.686;37.848;2023-02-12T10:14:54;99605.69;;;17.88;32.30
47785;BME280;35233;55.686;37.848;2023-02-12T10:19:56;99615.31;;;18.07;31.53
47785;BME280;35233;55.686;37.848;2023-02-12T10:22:48;99621.91;;;18.16;31.24
47785;BME280;35233;55.686;37.848;2023-02-12T10:25:49;99625.84;;;18.24;30.97
47785;BME280;35233;55.686;37.848;2023-02-12T10:31:20;99627.13;;;18.33;30.31
47785;BME280;35233;55.686;37.848;2023-02-12T10:33:49;99619.31;;;18.44;30.11
47785;BME280;35233;55.686;37.848;2023-02-12T10:36:40;99631.31;;;18.51;29.74
47785;BME280;35233;55.686;37.848;2023-02-12T10:41:39;99636.69;;;18.66;29.20
47785;BME280;35233;55.686;37.848;2023-02-12T10:44:10;99637.47;;;18.68;28.58
47785;BME280;35233;55.686;37.848;2023-02-12T10:46:36;99646.78;;;18.76;28.14
47785;BME280;35233;55.686;37.848;2023-02-12T10:49:02;99631.75;;;18.74;28.23
47785;BME280;35233;55.686;37.848;2023-02-12T10:54:35;99647.44;;;18.80;27.88
47785;BME280;35233;55.686;37.848;2023-02-12T10:59:52;99657.56;;;19.04;27.63
47785;BME280;35233;55.686;37.848;2023-02-12T11:02:29;99671.72;;;19.06;27.81
47785;BME280;35233;55.686;37.848;2023-02-12T11:04:56;99658.31;;;19.06;27.35
47785;BME280;35233;55.686;37.848;2023-02-12T11:07:24;99673.88;;;19.13;27.38
47785;BME280;35233;55.686;37.848;2023-02-12T11:09:52;99676.69;;;19.12;27.44
47785;BME280;35233;55.686;37.848;2023-02-12T11:12:40;99674.72;;;19.28;27.54
47785;BME280;35233;55.686;37.848;2023-02-12T11:15:18;99686.81;;;19.21;27.30
47785;BME280;35233;55.686;37.848;2023-02-12T11:17:54;99694.44;;;19.27;26.99
47785;BME280;35233;55.686;37.848;2023-02-12T11:22:52;99688.81;;;19.32;27.50
47785;BME280;35233;55.686;37.848;2023-02-12T11:25:18;99688.88;;;19.44;27.17
47785;BME280;35233;55.686;37.848;2023-02-12T11:27:44;99690.59;;;19.45;26.92
47785;BME280;35233;55.686;37.848;2023-02-12T11:30:19;99706.56;;;19.47;27.40
47785;BME280;35233;55.686;37.848;2023-02-12T11:32:45;99693.84;;;19.36;26.86
47785;BME280;35233;55.686;37.848;2023-02-12T11:35:20;99697.41;;;19.22;27.05
47785;BME280;35233;55.686;37.848;2023-02-12T11:37:58;99701.31;;;19.31;26.86
47785;BME280;35233;55.686;37.848;2023-02-12T11:40:30;99710.50;;;19.41;26.81
47785;BME280;35233;55.686;37.848;2023-02-12T11:43:03;99703.31;;;19.42;26.89
47785;BME280;35233;55.686;37.848;2023-02-12T11:48:00;99713.47;;;19.37;26.65
47785;BME280;35233;55.686;37.848;2023-02-12T11:50:28;99722.38;;;19.37;26.68
47785;BME280;35233;55.686;37.848;2023-02-12T11:53:05;99711.69;;;19.23;26.56
47785;BME280;35233;55.686;37.848;2023-02-12T11:55:35;99736.44;;;19.27;26.60
47785;BME280;35233;55.686;37.848;2023-02-12T11:58:19;99734.63;;;19.27;26.83
47785;BME280;35233;55.686;37.848;2023-02-12T12:01:00;99744.38;;;19.28;27.03
47785;BME280;35233;55.686;37.848;2023-02-12T12:09:21;99765.22;;;19.52;26.53
47785;BME280;35233;55.686;37.848;2023-02-12T12:17:23;99777.34;;;19.57;26.39
47785;BME280;35233;55.686;37.848;2023-02-12T12:20:15;99765.50;;;19.47;26.17
47785;BME280;35233;55.686;37.848;2023-02-12T12:23:24;99784.66;;;19.41;26.54
47785;BME280;35233;55.686;37.848;2023-02-12T12:26:02;99793.44;;;19.43;26.49
47785;BME280;35233;55.686;37.848;2023-02-12T12:28:43;99786.56;;;19.39;26.05
47785;BME280;35233;55.686;37.848;2023-02-12T12:31:17;99797.41;;;19.37;26.03
47785;BME280;35233;55.686;37.848;2023-02-12T12:36:41;99823.59;;;19.47;26.59
47785;BME280;35233;55.686;37.848;2023-02-12T13:10:24;99874.56;;;19.31;27.67
47785;BME280;35233;55.686;37.848;2023-02-12T13:15:32;99870.84;;;19.33;27.62
47785;BME280;35233;55.686;37.848;2023-02-12T13:18:39;99886.16;;;19.31;28.16
47785;BME280;35233;55.686;37.848;2023-02-12T13:26:52;99905.19;;;19.27;27.81
47785;BME280;35233;55.686;37.848;2023-02-12T13:29:38;99900.22;;;19.20;27.87
47785;BME280;35233;55.686;37.848;2023-02-12T13:32:12;99910.44;;;19.28;27.75
47785;BME280;35233;55.686;37.848;2023-02-12T13:34:41;99917.03;;;19.22;27.39
47785;BME280;35233;55.686;37.848;2023-02-12T13:37:14;99918.09;;;19.20;27.54
47785;BME280;35233;55.686;37.848;2023-02-12T13:39:44;99924.31;;;19.20;27.61
47785;BME280;35233;55.686;37.848;2023-02-12T13:42:45;99922.50;;;19.21;27.63
47785;BME280;35233;55.686;37.848;2023-02-12T13:45:17;99930.34;;;19.24;27.60
47785;BME280;35233;55.686;37.848;2023-02-12T13:53:23;99927.91;;;19.19;27.58
47785;BME280;35233;55.686;37.848;2023-02-12T14:01:01;99913.81;;;19.02;28.09
47785;BME280;35233;55.686;37.848;2023-02-12T14:03:28;99929.00;;;19.17;27.92
47785;BME280;35233;55.686;37.848;2023-02-12T14:06:18;99924.16;;;19.08;27.90
47785;BME280;35233;55.686;37.848;2023-02-12T14:08:59;99940.16;;;19.09;27.72
47785;BME280;35233;55.686;37.848;2023-02-12T14:11:50;99948.00;;;19.12;27.93
47785;BME280;35233;55.686;37.848;2023-02-12T14:14:35;99956.88;;;19.13;27.94
47785;BME280;35233;55.686;37.848;2023-02-12T14:24:51;99964.31;;;19.08;27.58
47785;BME280;35233;55.686;37.848;2023-02-12T14:35:30;99983.06;;;19.08;27.68
47785;BME280;35233;55.686;37.848;2023-02-12T14:37:59;99973.84;;;18.97;27.46
47785;BME280;35233;55.686;37.848;2023-02-12T14:43:24;100007.56;;;18.37;28.50
47785;BME280;35233;55.686;37.848;2023-02-12T14:46:44;99995.28;;;18.17;28.76
47785;BME280;35233;55.686;37.848;2023-02-12T14:48:55;100016.56;;;18.02;28.46
47785;BME280;35233;55.686;37.848;2023-02-12T14:51:50;100026.56;;;17.99;28.59
47785;BME280;35233;55.686;37.848;2023-02-12T14:54:28;100009.97;;;17.92;28.98
47785;BME280;35233;55.686;37.848;2023-02-12T14:56:58;100027.75;;;17.93;28.94
47785;BME280;35233;55.686;37.848;2023-02-12T14:59:26;100034.09;;;17.91;29.01
47785;BME280;35233;55.686;37.848;2023-02-12T15:01:54;100037.78;;;17.88;29.05
47785;BME280;35233;55.686;37.848;2023-02-12T15:04:27;100035.13;;;17.88;28.99
47785;BME280;35233;55.686;37.848;2023-02-12T15:07:07;100038.06;;;17.83;29.21
47785;BME280;35233;55.686;37.848;2023-02-12T15:10:17;100048.00;;;17.80;29.24
47785;BME280;35233;55.686;37.848;2023-02-12T15:12:53;100043.13;;;17.71;29.09
47785;BME280;35233;55.686;37.848;2023-02-12T15:15:53;100059.00;;;17.74;29.13
47785;BME280;35233;55.686;37.848;2023-02-12T15:18:24;100061.75;;;17.72;29.32
47785;BME280;35233;55.686;37.848;2023-02-12T15:21:13;100061.28;;;17.64;29.41
47785;BME280;35233;55.686;37.848;2023-02-12T15:23:42;100057.75;;;17.63;29.24
47785;BME280;35233;55.686;37.848;2023-02-12T15:26:17;100060.63;;;17.59;29.41
47785;BME280;35233;55.686;37.848;2023-02-12T15:28:46;100054.44;;;17.41;29.34
47785;BME280;35233;55.686;37.848;2023-02-12T15:31:15;100084.69;;;17.59;29.16
47785;BME280;35233;55.686;37.848;2023-02-12T15:33:49;100088.31;;;17.58;29.40
47785;BME280;35233;55.686;37.848;2023-02-12T15:36:18;100084.13;;;17.52;29.24
47785;BME280;35233;55.686;37.848;2023-02-12T15:38:48;100092.06;;;17.54;29.16
47785;BME280;35233;55.686;37.848;2023-02-12T15:43:49;100095.13;;;17.46;29.15
47785;BME280;35233;55.686;37.848;2023-02-12T15:46:16;100092.78;;;17.40;29.21
47785;BME280;35233;55.686;37.848;2023-02-12T15:48:42;100085.63;;;17.40;28.98
47785;BME280;35233;55.686;37.848;2023-02-12T15:51:29;100097.81;;;17.46;29.20
47785;BME280;35233;55.686;37.848;2023-02-12T15:53:58;100097.09;;;17.42;29.20